createdAt,value
2023-04-23T03:59:54.579Z,48.52
2023-04-23T04:00:54.514Z,48.81
2023-04-23T04:01:54.524Z,48.81
2023-04-23T04:02:54.729Z,48.81
2023-04-23T04:03:54.688Z,48.71
2023-04-23T04:04:54.656Z,48.81
2023-04-23T04:05:54.651Z,48.90
2023-04-23T04:06:54.472Z,49.00
2023-04-23T04:07:54.479Z,49.29
2023-04-23T04:08:54.470Z,49.38
2023-04-23T04:09:54.482Z,49.19
2023-04-23T04:10:54.482Z,49.48
2023-04-23T04:11:54.462Z,49.38
2023-04-23T04:12:54.443Z,49.48
2023-04-23T04:13:54.446Z,49.38
2023-04-23T04:14:54.430Z,49.48
2023-04-23T04:15:54.462Z,49.58
2023-04-23T04:16:54.466Z,49.48
2023-04-23T04:17:54.446Z,49.38
2023-04-23T04:18:56.449Z,49.19
2023-04-23T04:19:54.436Z,49.68
2023-04-23T04:20:54.418Z,49.77
2023-04-23T04:21:54.403Z,49.48
2023-04-23T04:22:54.400Z,49.68
2023-04-23T04:23:54.398Z,49.58
2023-04-23T04:24:54.417Z,49.58
2023-04-23T04:25:54.413Z,49.68
2023-04-23T04:26:54.414Z,49.38
2023-04-23T04:27:54.409Z,49.60
2023-04-23T04:28:54.403Z,49.51
2023-04-23T04:29:54.428Z,49.51
2023-04-23T04:30:54.399Z,49.51
2023-04-23T04:31:54.394Z,49.60
2023-04-23T04:32:54.365Z,49.70
2023-04-23T04:33:54.350Z,49.60
2023-04-23T04:34:54.362Z,49.60
2023-04-23T04:35:54.362Z,49.70
2023-04-23T04:36:54.343Z,49.70
2023-04-23T04:37:54.352Z,49.70
2023-04-23T04:38:54.357Z,49.70
2023-04-23T04:39:54.385Z,49.70
2023-04-23T04:40:54.382Z,49.60
2023-04-23T04:41:54.321Z,49.60
2023-04-23T04:42:54.350Z,49.60
2023-04-23T04:43:54.318Z,49.60
2023-04-23T04:44:54.319Z,49.60
2023-04-23T04:45:54.316Z,49.70
2023-04-23T04:46:54.322Z,49.60
2023-04-23T04:47:54.369Z,49.32
2023-04-23T04:48:54.302Z,49.60
2023-04-23T04:49:54.286Z,49.22
2023-04-23T04:50:54.296Z,49.22
2023-04-23T04:51:54.309Z,49.22
2023-04-23T04:52:54.323Z,49.41
2023-04-23T04:53:54.334Z,49.41
2023-04-23T04:54:54.305Z,49.22
2023-04-23T04:55:54.288Z,49.51
2023-04-23T04:56:54.287Z,49.51
2023-04-23T04:57:54.274Z,49.12
2023-04-23T04:58:54.304Z,49.32
2023-04-23T04:59:54.305Z,49.34
2023-04-23T05:00:54.306Z,49.43
2023-04-23T05:01:54.301Z,49.32
2023-04-23T05:02:54.341Z,49.32
2023-04-23T05:03:54.452Z,49.51
2023-04-23T05:04:54.244Z,49.24
2023-04-23T05:05:54.247Z,49.15
2023-04-23T05:06:54.232Z,49.63
2023-04-23T05:07:54.301Z,49.41
2023-04-23T05:08:54.264Z,49.24
2023-04-23T05:09:54.230Z,49.63
2023-04-23T05:10:54.251Z,49.24
2023-04-23T05:11:54.230Z,49.63
2023-04-23T05:12:54.237Z,49.15
2023-04-23T05:13:54.249Z,49.63
2023-04-23T05:14:54.427Z,49.05
2023-04-23T05:15:54.212Z,49.53
2023-04-23T05:16:54.239Z,49.43
2023-04-23T05:17:54.226Z,49.34
2023-04-23T05:18:54.200Z,49.15
2023-04-23T05:19:54.219Z,49.15
2023-04-23T05:20:54.186Z,49.63
2023-04-23T05:21:54.185Z,49.15
2023-04-23T05:22:54.185Z,49.53
2023-04-23T05:23:54.199Z,49.43
2023-04-23T05:24:54.199Z,49.15
2023-04-23T05:25:54.463Z,49.15
2023-04-23T05:26:54.173Z,49.24
2023-04-23T05:27:54.193Z,49.34
2023-04-23T05:28:54.168Z,49.24
2023-04-23T05:29:54.199Z,49.34
2023-04-23T05:30:54.156Z,49.05
2023-04-23T05:31:54.165Z,49.05
2023-04-23T05:32:54.188Z,49.15
2023-04-23T05:33:54.158Z,49.24
2023-04-23T05:34:54.141Z,49.43
2023-04-23T05:35:54.146Z,49.43
2023-04-23T05:36:54.138Z,49.24
2023-04-23T05:37:54.155Z,49.63
2023-04-23T05:38:54.126Z,49.15
2023-04-23T05:39:54.165Z,49.15
2023-04-23T05:40:54.110Z,48.95
2023-04-23T05:41:54.121Z,49.05
2023-04-23T05:42:54.115Z,49.34
2023-04-23T05:43:54.127Z,49.05
2023-04-23T05:44:54.095Z,49.15
2023-04-23T05:45:54.102Z,49.15
2023-04-23T05:46:54.093Z,49.05
2023-04-23T05:47:54.229Z,49.24
2023-04-23T05:48:54.092Z,49.24
2023-04-23T05:49:54.078Z,49.05
2023-04-23T05:50:54.082Z,49.24
2023-04-23T05:51:54.135Z,48.95
2023-04-23T05:52:54.070Z,49.17
2023-04-23T05:53:54.091Z,49.07
2023-04-23T05:54:54.056Z,49.17
2023-04-23T05:55:54.093Z,48.97
2023-04-23T05:56:54.703Z,49.07
2023-04-23T05:57:54.060Z,49.17
2023-04-23T05:58:54.071Z,49.07
2023-04-23T05:59:54.039Z,49.07
2023-04-23T06:00:54.051Z,49.07
2023-04-23T06:01:54.034Z,48.69
2023-04-23T06:02:54.140Z,48.97
2023-04-23T06:03:54.304Z,48.97
2023-04-23T06:04:54.364Z,48.79
2023-04-23T06:05:54.032Z,48.88
2023-04-23T06:06:54.021Z,48.97
2023-04-23T06:07:54.063Z,48.61
2023-04-23T06:08:54.049Z,48.81
2023-04-23T06:09:54.023Z,48.61
2023-04-23T06:10:54.011Z,48.61
2023-04-23T06:11:54.009Z,48.71
2023-04-23T06:12:54.048Z,48.71
2023-04-23T06:13:54.026Z,48.71
2023-04-23T06:14:54.013Z,48.52
2023-04-23T06:15:54.029Z,48.61
2023-04-23T06:16:53.986Z,48.71
2023-04-23T06:17:54.044Z,48.71
2023-04-23T06:18:53.990Z,48.42
2023-04-23T06:19:53.998Z,48.52
2023-04-23T06:20:54.002Z,48.42
2023-04-23T06:21:53.970Z,48.64
2023-04-23T06:22:53.987Z,48.54
2023-04-23T06:23:53.985Z,48.44
2023-04-23T06:24:53.979Z,48.44
2023-04-23T06:25:53.974Z,48.54
2023-04-23T06:26:53.954Z,48.44
2023-04-23T06:27:53.958Z,48.44
2023-04-23T06:28:53.967Z,48.44
2023-04-23T06:29:54.062Z,48.35
2023-04-23T06:30:53.958Z,48.16
2023-04-23T06:31:53.988Z,48.35
2023-04-23T06:32:53.988Z,48.37
2023-04-23T06:33:53.949Z,48.18
2023-04-23T06:35:01.711Z,48.28
2023-04-23T06:35:53.964Z,48.18
2023-04-23T06:36:53.963Z,48.37
2023-04-23T06:37:53.937Z,48.28
2023-04-23T06:38:53.923Z,48.37
2023-04-23T06:39:53.950Z,48.18
2023-04-23T06:40:53.947Z,48.37
2023-04-23T06:41:53.921Z,48.28
2023-04-23T06:42:53.931Z,48.18
2023-04-23T06:43:53.930Z,48.28
2023-04-23T06:44:53.920Z,48.37
2023-04-23T06:45:53.957Z,48.28
2023-04-23T06:46:53.955Z,48.18
2023-04-23T06:47:53.926Z,48.18
2023-04-23T06:48:53.915Z,48.18
2023-04-23T06:49:53.932Z,48.08
2023-04-23T06:50:53.992Z,48.28
2023-04-23T06:51:55.243Z,48.28
2023-04-23T06:52:53.905Z,48.28
2023-04-23T06:53:53.918Z,48.18
2023-04-23T06:54:53.916Z,48.11
2023-04-23T06:55:53.972Z,48.30
2023-04-23T06:56:53.907Z,48.11
2023-04-23T06:57:53.901Z,48.21
2023-04-23T06:58:53.892Z,48.01
2023-04-23T06:59:53.916Z,48.01
2023-04-23T07:00:53.926Z,48.01
2023-04-23T07:01:53.880Z,48.01
2023-04-23T07:02:53.926Z,48.11
2023-04-23T07:03:53.936Z,48.01
2023-04-23T07:04:53.891Z,48.11
2023-04-23T07:05:53.896Z,48.01
2023-04-23T07:06:53.884Z,48.11
2023-04-23T07:07:53.910Z,48.01
2023-04-23T07:08:53.982Z,48.01
2023-04-23T07:09:53.888Z,48.01
2023-04-23T07:10:53.897Z,47.91
2023-04-23T07:11:53.907Z,47.94
2023-04-23T07:12:53.888Z,47.94
2023-04-23T07:13:53.873Z,47.84
2023-04-23T07:14:53.869Z,47.84
2023-04-23T07:15:53.883Z,47.74
2023-04-23T07:16:53.967Z,47.84
2023-04-23T07:17:53.919Z,47.84
2023-04-23T07:18:53.887Z,47.84
2023-04-23T07:19:53.895Z,47.65
2023-04-23T07:20:55.905Z,47.55
2023-04-23T07:21:53.896Z,47.65
2023-04-23T07:22:53.890Z,47.74
2023-04-23T07:23:53.864Z,47.65
2023-04-23T07:24:53.878Z,47.74
2023-04-23T07:25:53.879Z,47.58
2023-04-23T07:26:53.855Z,47.67
2023-04-23T07:27:53.921Z,47.58
2023-04-23T07:28:53.857Z,47.38
2023-04-23T07:29:53.884Z,47.48
2023-04-23T07:30:53.878Z,47.38
2023-04-23T07:31:53.969Z,47.58
2023-04-23T07:32:53.912Z,47.28
2023-04-23T07:33:53.849Z,47.58
2023-04-23T07:34:53.852Z,47.50
2023-04-23T07:35:53.854Z,47.31
2023-04-23T07:36:53.878Z,47.28
2023-04-23T07:37:53.895Z,47.50
2023-04-23T07:38:53.853Z,47.41
2023-04-23T07:39:53.906Z,47.11
2023-04-23T07:40:53.846Z,47.11
2023-04-23T07:41:53.850Z,47.02
2023-04-23T07:42:53.840Z,47.31
2023-04-23T07:43:53.854Z,47.02
2023-04-23T07:44:53.930Z,47.11
2023-04-23T07:45:53.892Z,47.21
2023-04-23T07:46:53.832Z,47.21
2023-04-23T07:47:53.887Z,47.11
2023-04-23T07:48:53.889Z,47.33
2023-04-23T07:49:53.842Z,47.04
2023-04-23T07:50:53.872Z,47.14
2023-04-23T07:51:53.849Z,46.66
2023-04-23T07:52:53.833Z,47.14
2023-04-23T07:53:53.858Z,46.75
2023-04-23T07:54:53.847Z,47.04
2023-04-23T07:55:53.833Z,46.94
2023-04-23T07:56:53.855Z,46.84
2023-04-23T07:57:53.842Z,46.75
2023-04-23T07:58:53.860Z,46.75
2023-04-23T07:59:53.855Z,46.84
2023-04-23T08:00:53.827Z,46.84
2023-04-23T08:01:53.848Z,46.94
2023-04-23T08:02:53.993Z,46.97
2023-04-23T08:03:55.172Z,46.66
2023-04-23T08:04:54.027Z,46.77
2023-04-23T08:05:53.838Z,46.77
2023-04-23T08:06:53.851Z,46.97
2023-04-23T08:07:53.854Z,47.06
2023-04-23T08:08:53.830Z,46.87
2023-04-23T08:09:53.859Z,46.67
2023-04-23T08:10:53.827Z,46.97
2023-04-23T08:11:53.852Z,46.77
2023-04-23T08:12:53.853Z,46.77
2023-04-23T08:13:53.842Z,46.77
2023-04-23T08:14:53.823Z,46.58
2023-04-23T08:15:53.861Z,46.67
2023-04-23T08:16:53.810Z,46.58
2023-04-23T08:17:54.122Z,46.58
2023-04-23T08:19:04.304Z,46.39
2023-04-23T08:19:53.838Z,46.58
2023-04-23T08:20:53.836Z,46.60
2023-04-23T08:21:53.825Z,46.70
2023-04-23T08:22:53.864Z,46.29
2023-04-23T08:23:53.853Z,46.31
2023-04-23T08:24:53.821Z,46.31
2023-04-23T08:25:53.827Z,46.41
2023-04-23T08:26:53.839Z,46.22
2023-04-23T08:27:53.850Z,46.51
2023-04-23T08:28:53.823Z,46.41
2023-04-23T08:29:53.833Z,46.31
2023-04-23T08:30:53.831Z,46.31
2023-04-23T08:31:53.904Z,46.60
2023-04-23T08:32:54.038Z,46.60
2023-04-23T08:33:53.837Z,46.31
2023-04-23T08:34:53.840Z,46.80
2023-04-23T08:35:53.833Z,46.60
2023-04-23T08:36:53.844Z,46.89
2023-04-23T08:37:53.829Z,46.89
2023-04-23T08:38:53.833Z,46.80
2023-04-23T08:39:53.807Z,46.70
2023-04-23T08:40:53.822Z,46.60
2023-04-23T08:41:53.830Z,46.60
2023-04-23T08:42:53.822Z,46.33
2023-04-23T08:43:53.809Z,46.53
2023-04-23T08:44:53.838Z,46.53
2023-04-23T08:45:53.823Z,46.43
2023-04-23T08:46:53.872Z,46.62
2023-04-23T08:47:53.869Z,46.53
2023-04-23T08:48:53.842Z,46.62
2023-04-23T08:49:53.840Z,46.53
2023-04-23T08:50:53.825Z,46.43
2023-04-23T08:51:53.825Z,46.43
2023-04-23T08:52:53.848Z,46.53
2023-04-23T08:53:53.864Z,46.53
2023-04-23T08:54:53.849Z,46.62
2023-04-23T08:55:53.887Z,46.62
2023-04-23T08:56:53.818Z,46.53
2023-04-23T08:57:53.863Z,46.62
2023-04-23T08:58:56.446Z,46.72
2023-04-23T08:59:53.835Z,46.53
2023-04-23T09:00:53.905Z,46.62
2023-04-23T09:01:53.832Z,46.53
2023-04-23T09:02:53.975Z,46.43
2023-04-23T09:03:54.095Z,46.53
2023-04-23T09:04:56.053Z,46.53
2023-04-23T09:05:53.821Z,46.53
2023-04-23T09:06:53.849Z,46.53
2023-04-23T09:07:53.841Z,46.53
2023-04-23T09:08:53.820Z,46.53
2023-04-23T09:09:53.863Z,46.62
2023-04-23T09:10:53.812Z,46.53
2023-04-23T09:11:54.918Z,46.53
2023-04-23T09:12:53.816Z,46.53
2023-04-23T09:13:53.833Z,46.62
2023-04-23T09:14:53.832Z,46.53
2023-04-23T09:15:53.822Z,46.43
2023-04-23T09:16:54.026Z,46.53
2023-04-23T09:17:53.858Z,46.24
2023-04-23T09:18:53.818Z,46.53
2023-04-23T09:19:53.875Z,46.43
2023-04-23T09:20:53.834Z,46.62
2023-04-23T09:21:53.848Z,46.62
2023-04-23T09:22:53.867Z,46.62
2023-04-23T09:23:53.814Z,46.53
2023-04-23T09:24:53.810Z,46.53
2023-04-23T09:25:53.833Z,46.53
2023-04-23T09:26:53.824Z,46.62
2023-04-23T09:27:53.824Z,46.53
2023-04-23T09:28:53.855Z,46.62
2023-04-23T09:29:53.854Z,46.53
2023-04-23T09:30:53.838Z,46.62
2023-04-23T09:31:53.875Z,46.72
2023-04-23T09:32:53.913Z,46.72
2023-04-23T09:33:53.866Z,46.53
2023-04-23T09:34:53.832Z,46.62
2023-04-23T09:35:53.869Z,46.62
2023-04-23T09:36:53.823Z,46.62
2023-04-23T09:37:53.895Z,46.53
2023-04-23T09:38:53.838Z,46.62
2023-04-23T09:39:53.816Z,46.72
2023-04-23T09:40:53.822Z,46.72
2023-04-23T09:41:53.868Z,46.72
2023-04-23T09:42:53.855Z,46.53
2023-04-23T09:43:53.828Z,46.72
2023-04-23T09:44:53.839Z,46.72
2023-04-23T09:45:53.869Z,46.62
2023-04-23T09:46:53.811Z,46.72
2023-04-23T09:47:53.906Z,46.72
2023-04-23T09:48:53.817Z,46.72
2023-04-23T09:49:53.819Z,46.43
2023-04-23T09:50:53.836Z,46.62
2023-04-23T09:51:53.842Z,46.62
2023-04-23T09:52:53.838Z,46.43
2023-04-23T09:53:53.834Z,46.65
2023-04-23T09:54:53.829Z,46.65
2023-04-23T09:55:53.846Z,46.75
2023-04-23T09:56:53.964Z,46.45
2023-04-23T09:57:53.827Z,46.75
2023-04-23T09:58:53.841Z,46.75
2023-04-23T10:00:00.530Z,46.75
2023-04-23T10:00:53.857Z,46.75
2023-04-23T10:12:53.541Z,45.99
2023-04-23T10:13:40.714Z,45.99
2023-04-23T10:14:40.723Z,45.99
2023-04-23T10:15:40.774Z,46.19
2023-04-23T10:16:48.732Z,46.09
2023-04-23T10:17:40.734Z,46.01
2023-04-23T10:18:40.706Z,46.01
2023-04-23T10:19:41.470Z,46.21
2023-04-23T10:20:40.722Z,45.92
2023-04-23T10:21:53.393Z,46.11
2023-04-23T10:22:40.739Z,46.01
2023-04-23T10:23:40.706Z,46.21
2023-04-23T10:24:40.794Z,46.01
2023-04-23T10:25:40.727Z,46.14
2023-04-23T10:26:40.745Z,46.14
2023-04-23T10:27:52.172Z,46.04
2023-04-23T10:28:40.739Z,45.84
2023-04-23T10:29:40.895Z,45.94
2023-04-23T10:30:40.777Z,45.94
2023-04-23T10:31:40.783Z,45.94
2023-04-23T10:32:40.735Z,46.06
2023-04-23T10:33:55.376Z,46.06
2023-04-23T10:34:40.737Z,45.87
2023-04-23T10:35:40.738Z,45.77
2023-04-23T10:36:40.752Z,45.97
2023-04-23T10:37:40.755Z,45.77
2023-04-23T10:38:54.553Z,46.28
2023-04-23T10:39:40.759Z,46.25
2023-04-23T10:40:40.737Z,46.08
2023-04-23T10:41:40.860Z,46.18
2023-04-23T10:42:40.735Z,45.98
2023-04-23T10:43:40.754Z,45.79
2023-04-23T10:45:40.787Z,45.89
2023-04-23T10:46:40.759Z,45.81
2023-04-23T10:47:40.815Z,45.72
2023-04-23T10:48:40.756Z,45.72
2023-04-23T10:49:41.058Z,45.81
2023-04-23T10:51:00.338Z,45.81
2023-04-23T10:52:40.777Z,45.62
2023-04-23T10:53:40.772Z,45.62
2023-04-23T10:54:40.789Z,45.72
2023-04-23T10:55:40.797Z,45.04
2023-04-23T10:56:40.782Z,45.72
2023-04-23T10:57:40.798Z,45.74
2023-04-23T10:58:40.800Z,45.62
2023-04-23T10:59:40.967Z,45.62
2023-04-23T11:00:40.811Z,45.62
2023-04-23T11:01:40.839Z,45.52
2023-04-23T11:02:40.883Z,45.32
2023-04-23T11:03:43.960Z,45.14
2023-04-23T11:04:40.854Z,44.84
2023-04-23T11:05:40.798Z,44.84
2023-04-23T11:06:40.796Z,44.94
2023-04-23T11:07:40.809Z,44.96
2023-04-23T11:08:40.835Z,44.76
2023-04-23T11:09:41.202Z,44.96
2023-04-23T11:10:40.821Z,45.06
2023-04-23T11:11:40.819Z,44.96
2023-04-23T11:12:40.835Z,45.06
2023-04-23T11:13:40.844Z,45.08
2023-04-23T11:14:40.831Z,45.08
2023-04-23T11:15:40.831Z,44.69
2023-04-23T11:16:41.009Z,45.08
2023-04-23T11:17:40.888Z,45.08
2023-04-23T11:18:40.846Z,44.98
2023-04-23T11:19:41.093Z,45.20
2023-04-23T11:20:40.838Z,45.08
2023-04-23T11:21:40.833Z,45.08
2023-04-23T11:22:40.841Z,45.10
2023-04-23T11:23:40.854Z,44.90
2023-04-23T11:24:40.858Z,45.00
2023-04-23T11:25:40.845Z,44.90
2023-04-23T11:26:40.846Z,44.90
2023-04-23T11:27:40.889Z,44.42
2023-04-23T11:28:40.854Z,44.71
2023-04-23T11:29:41.216Z,44.52
2023-04-23T11:30:40.862Z,44.81
2023-04-23T11:31:50.605Z,44.81
2023-04-23T11:32:40.970Z,44.90
2023-04-23T11:33:40.895Z,44.81
2023-04-23T11:34:40.869Z,44.81
2023-04-23T11:35:40.887Z,44.62
2023-04-23T11:36:40.881Z,44.71
2023-04-23T11:37:40.892Z,44.69
2023-04-23T11:38:40.902Z,44.69
2023-04-23T11:39:41.220Z,44.59
2023-04-23T11:40:40.883Z,44.40
2023-04-23T11:41:40.885Z,44.49
2023-04-23T11:42:40.929Z,44.59
2023-04-23T11:43:40.913Z,44.69
2023-04-23T11:44:40.966Z,43.91
2023-04-23T11:45:40.928Z,44.30
2023-04-23T11:46:40.897Z,44.09
2023-04-23T11:47:40.953Z,44.48
2023-04-23T11:48:40.926Z,44.01
2023-04-23T11:49:41.130Z,44.49
2023-04-23T11:50:40.906Z,44.20
2023-04-23T11:51:40.911Z,44.01
2023-04-23T11:52:40.926Z,44.30
2023-04-23T11:53:40.923Z,44.40
2023-04-23T11:54:40.912Z,44.42
2023-04-23T11:55:40.933Z,44.03
2023-04-23T11:56:40.917Z,43.93
2023-04-23T11:57:40.927Z,43.93
2023-04-23T11:58:40.937Z,44.03
2023-04-23T11:59:41.179Z,44.03
2023-04-23T12:00:40.942Z,43.84
2023-04-23T12:01:40.953Z,44.03
2023-04-23T12:02:41.078Z,43.74
2023-04-23T12:03:41.032Z,44.03
2023-04-23T12:04:41.478Z,43.85
2023-04-23T12:05:41.046Z,43.66
2023-04-23T12:06:40.976Z,43.95
2023-04-23T12:07:40.984Z,43.95
2023-04-23T12:08:40.950Z,43.76
2023-04-23T12:09:41.225Z,43.66
2023-04-23T12:10:40.953Z,43.57
2023-04-23T12:11:40.971Z,44.15
2023-04-23T12:12:40.966Z,44.05
2023-04-23T12:13:40.969Z,43.57
2023-04-23T12:14:40.984Z,43.95
2023-04-23T12:15:41.052Z,43.95
2023-04-23T12:16:40.960Z,43.95
2023-04-23T12:17:41.003Z,43.95
2023-04-23T12:18:40.976Z,43.76
2023-04-23T12:19:41.176Z,43.76
2023-04-23T12:20:40.995Z,43.85
2023-04-23T12:21:40.973Z,43.95
2023-04-23T12:22:40.973Z,43.76
2023-04-23T12:23:40.986Z,43.76
2023-04-23T12:24:41.046Z,43.57
2023-04-23T12:25:41.000Z,43.57
2023-04-23T12:26:41.019Z,43.57
2023-04-23T12:27:41.027Z,43.57
2023-04-23T12:28:41.015Z,43.19
2023-04-23T12:29:41.231Z,43.00
2023-04-23T12:30:41.037Z,42.90
2023-04-23T12:31:41.062Z,42.93
2023-04-23T12:32:41.114Z,43.22
2023-04-23T12:33:41.054Z,42.83
2023-04-23T12:34:41.299Z,42.83
2023-04-23T12:35:41.014Z,42.75
2023-04-23T12:36:41.044Z,42.65
2023-04-23T12:37:41.023Z,42.55
2023-04-23T12:38:41.034Z,42.36
2023-04-23T12:39:41.501Z,42.46
2023-04-23T12:40:41.051Z,42.46
2023-04-23T12:41:41.036Z,42.48
2023-04-23T12:42:41.050Z,42.55
2023-04-23T12:43:41.042Z,42.55
2023-04-23T12:44:41.048Z,42.55
2023-04-23T12:45:41.095Z,42.65
2023-04-23T12:46:41.070Z,42.73
2023-04-23T12:47:41.091Z,42.75
2023-04-23T12:48:41.057Z,43.22
2023-04-23T12:49:41.321Z,43.02
2023-04-23T12:50:41.143Z,42.93
2023-04-23T12:51:41.067Z,43.02
2023-04-23T12:52:41.092Z,43.12
2023-04-23T12:53:41.111Z,42.93
2023-04-23T12:54:41.112Z,42.93
2023-04-23T12:55:41.145Z,43.02
2023-04-23T12:56:41.075Z,42.83
2023-04-23T12:57:41.101Z,43.32
2023-04-23T12:58:41.109Z,42.80
2023-04-23T12:59:41.623Z,43.00
2023-04-23T13:00:41.141Z,42.90
2023-04-23T13:01:41.130Z,43.00
2023-04-23T13:02:41.314Z,42.90
2023-04-23T13:03:41.243Z,42.88
2023-04-23T13:04:41.106Z,42.98
2023-04-23T13:05:41.110Z,42.88
2023-04-23T13:06:41.118Z,42.79
2023-04-23T13:07:41.132Z,42.79
2023-04-23T13:08:41.129Z,42.79
2023-04-23T13:09:41.341Z,42.79
2023-04-23T13:10:41.141Z,42.88
2023-04-23T13:11:41.113Z,43.00
2023-04-23T13:12:41.150Z,42.80
2023-04-23T13:13:41.120Z,42.71
2023-04-23T13:14:41.149Z,42.71
2023-04-23T13:15:41.126Z,42.51
2023-04-23T13:16:41.164Z,42.61
2023-04-23T13:17:41.190Z,42.44
2023-04-23T13:18:41.171Z,42.24
2023-04-23T13:19:41.526Z,42.14
2023-04-23T13:20:41.177Z,42.34
2023-04-23T13:21:41.192Z,42.34
2023-04-23T13:22:41.171Z,42.34
2023-04-23T13:23:41.178Z,42.44
2023-04-23T13:24:41.186Z,42.16
2023-04-23T13:25:41.194Z,42.07
2023-04-23T13:26:41.164Z,42.07
2023-04-23T13:27:41.196Z,42.34
2023-04-23T13:28:41.169Z,42.24
2023-04-23T13:29:41.438Z,42.34
2023-04-23T13:30:41.181Z,42.44
2023-04-23T13:31:41.271Z,42.63
2023-04-23T13:32:41.182Z,42.61
2023-04-23T13:33:41.167Z,42.71
2023-04-23T13:34:41.198Z,42.51
2023-04-23T13:35:41.207Z,42.88
2023-04-23T13:36:41.254Z,43.18
2023-04-23T13:37:41.213Z,42.79
2023-04-23T13:38:41.202Z,42.88
2023-04-23T13:39:41.959Z,42.98
2023-04-23T13:40:41.212Z,42.86
2023-04-23T13:41:41.221Z,43.05
2023-04-23T13:42:41.216Z,43.25
2023-04-23T13:43:41.211Z,43.13
2023-04-23T13:44:41.233Z,43.23
2023-04-23T13:45:41.254Z,43.23
2023-04-23T13:46:41.333Z,43.33
2023-04-23T13:47:41.281Z,43.33
2023-04-23T13:48:41.210Z,43.04
2023-04-23T13:49:41.633Z,43.60
2023-04-23T13:50:41.215Z,43.30
2023-04-23T13:51:41.219Z,43.30
2023-04-23T13:52:41.224Z,43.11
2023-04-23T13:53:41.217Z,43.30
2023-04-23T13:54:41.273Z,43.38
2023-04-23T13:55:41.235Z,43.38
2023-04-23T13:56:41.233Z,43.58
2023-04-23T13:57:41.261Z,43.38
2023-04-23T13:58:41.271Z,43.48
2023-04-23T13:59:41.537Z,43.77
2023-04-23T14:00:41.236Z,43.87
2023-04-23T14:01:41.383Z,43.58
2023-04-23T14:02:41.334Z,43.75
2023-04-23T14:03:41.229Z,43.75
2023-04-23T14:04:41.344Z,43.55
2023-04-23T14:05:41.246Z,43.75
2023-04-23T14:06:41.256Z,43.95
2023-04-23T14:07:41.256Z,43.46
2023-04-23T14:08:41.263Z,43.55
2023-04-23T14:12:13.811Z,43.55
2023-04-23T14:13:13.803Z,43.46
2023-04-23T14:14:13.825Z,43.19
2023-04-23T14:15:13.790Z,43.19
2023-04-23T14:16:13.806Z,43.19
2023-04-23T14:17:13.788Z,43.38
2023-04-23T14:18:13.787Z,43.21
2023-04-23T14:19:13.830Z,43.29
2023-04-23T14:20:13.802Z,43.11
2023-04-23T14:21:16.320Z,43.11
2023-04-23T14:22:13.833Z,43.21
2023-04-23T14:23:13.826Z,43.30
2023-04-23T14:24:13.836Z,43.11
2023-04-23T14:25:13.812Z,43.11
2023-04-23T14:26:13.821Z,43.11
2023-04-23T14:27:13.840Z,43.01
2023-04-23T14:28:13.815Z,42.91
2023-04-23T14:29:13.827Z,43.04
2023-04-23T14:30:13.830Z,43.04
2023-04-23T14:31:13.861Z,42.84
2023-04-23T14:32:13.830Z,42.84
2023-04-23T14:33:13.817Z,42.74
2023-04-23T14:34:13.835Z,42.74
2023-04-23T14:35:13.844Z,43.15
2023-04-23T14:36:13.830Z,42.76
2023-04-23T14:37:13.834Z,42.86
2023-04-23T14:38:13.827Z,43.05
2023-04-23T14:39:13.827Z,42.66
2023-04-23T14:40:13.875Z,42.86
2023-04-23T14:41:13.836Z,42.86
2023-04-23T14:42:13.939Z,42.96
2023-04-23T14:43:15.861Z,42.94
2023-04-23T14:44:13.873Z,42.94
2023-04-23T14:45:13.856Z,42.94
2023-04-23T14:46:13.862Z,43.23
2023-04-23T14:47:13.859Z,43.33
2023-04-23T14:48:13.841Z,43.30
2023-04-23T14:49:13.855Z,43.40
2023-04-23T14:50:13.890Z,43.30
2023-04-23T14:51:13.856Z,43.30
2023-04-23T14:52:13.878Z,43.38
2023-04-23T14:53:13.855Z,43.48
2023-04-23T14:54:13.867Z,43.87
2023-04-23T14:55:13.867Z,43.65
2023-04-23T14:56:34.873Z,43.65
2023-04-23T14:57:13.855Z,43.65
2023-04-23T14:58:13.858Z,43.63
2023-04-23T14:59:13.882Z,43.92
2023-04-23T15:00:13.933Z,43.73
2023-04-23T15:01:13.936Z,44.12
2023-04-23T15:02:13.997Z,43.90
2023-04-23T15:03:13.944Z,44.09
2023-04-23T15:04:14.022Z,44.09
2023-04-23T15:05:13.970Z,44.09
2023-04-23T15:06:13.895Z,43.90
2023-04-23T15:07:13.871Z,44.00
2023-04-23T15:08:13.872Z,44.37
2023-04-23T15:09:13.860Z,44.56
2023-04-23T15:10:13.875Z,44.56
2023-04-23T15:11:13.882Z,44.56
2023-04-23T15:12:13.870Z,44.46
2023-04-23T15:13:13.869Z,44.46
2023-04-23T15:14:13.866Z,44.46
2023-04-23T15:15:13.867Z,44.37
2023-04-23T15:16:13.941Z,44.44
2023-04-23T15:17:13.946Z,44.44
2023-04-23T15:18:13.883Z,44.54
2023-04-23T15:19:13.905Z,44.34
2023-04-23T15:20:13.876Z,44.54
2023-04-23T15:21:13.885Z,44.54
2023-04-23T15:22:13.874Z,44.83
2023-04-23T15:23:13.913Z,44.61
2023-04-23T15:24:13.883Z,44.81
2023-04-23T15:25:13.902Z,44.83
2023-04-23T15:26:13.978Z,44.90
2023-04-23T15:27:13.878Z,44.90
2023-04-23T15:28:13.885Z,44.71
2023-04-23T15:29:14.112Z,44.81
2023-04-23T15:30:13.874Z,44.71
2023-04-23T15:31:13.992Z,44.71
2023-04-23T15:32:13.888Z,44.71
2023-04-23T15:33:13.926Z,44.51
2023-04-23T15:34:13.877Z,44.81
2023-04-23T15:35:13.888Z,44.81
2023-04-23T15:36:13.918Z,44.51
2023-04-23T15:37:13.876Z,44.61
2023-04-23T15:38:13.869Z,44.81
2023-04-23T15:39:13.881Z,44.81
2023-04-23T15:40:13.873Z,44.42
2023-04-23T15:41:13.895Z,44.71
2023-04-23T15:42:13.877Z,44.71
2023-04-23T15:43:13.897Z,44.61
2023-04-23T15:44:13.870Z,44.61
2023-04-23T15:45:13.897Z,44.61
2023-04-23T15:46:13.982Z,44.90
2023-04-23T15:47:13.909Z,44.90
2023-04-23T15:48:13.881Z,44.71
2023-04-23T15:49:14.502Z,44.81
2023-04-23T15:50:13.885Z,44.51
2023-04-23T15:51:13.892Z,44.90
2023-04-23T15:52:13.899Z,44.90
2023-04-23T15:53:13.878Z,44.81
2023-04-23T15:54:13.885Z,44.90
2023-04-23T15:55:13.866Z,45.00
2023-04-23T15:56:13.867Z,44.90
2023-04-23T15:57:13.884Z,44.42
2023-04-23T15:58:13.880Z,45.00
2023-04-23T15:59:13.864Z,44.90
2023-04-23T16:00:13.867Z,44.88
2023-04-23T16:11:44.834Z,44.78
2023-04-23T16:12:44.790Z,44.76
2023-04-23T16:13:44.763Z,44.76
2023-04-23T16:14:44.768Z,44.67
2023-04-23T16:15:44.779Z,45.05
2023-04-23T16:16:44.855Z,45.15
2023-04-23T16:17:44.785Z,45.05
2023-04-23T16:18:44.750Z,45.54
2023-04-23T16:19:45.018Z,45.44
2023-04-23T16:20:44.780Z,45.44
2023-04-23T16:21:44.763Z,45.51
2023-04-23T16:22:44.756Z,44.93
2023-04-23T16:23:44.756Z,45.32
2023-04-23T16:24:44.764Z,45.32
2023-04-23T16:25:44.743Z,45.71
2023-04-23T16:26:44.775Z,45.71
2023-04-23T16:27:44.780Z,45.71
2023-04-23T16:28:45.789Z,45.61
2023-04-23T16:29:44.771Z,45.51
2023-04-23T16:30:44.777Z,45.71
2023-04-23T16:31:44.773Z,45.59
2023-04-23T16:32:44.799Z,45.68
2023-04-23T16:33:44.742Z,45.20
2023-04-23T16:34:44.834Z,45.68
2023-04-23T16:35:44.743Z,45.68
2023-04-23T16:36:44.745Z,45.78
2023-04-23T16:37:44.736Z,45.88
2023-04-23T16:38:44.722Z,45.98
2023-04-23T16:39:44.728Z,45.98
2023-04-23T16:40:44.732Z,45.49
2023-04-23T16:41:44.825Z,45.98
2023-04-23T16:42:44.743Z,45.40
2023-04-23T16:43:44.954Z,45.40
2023-04-23T16:44:44.837Z,46.25
2023-04-23T16:45:44.721Z,45.47
2023-04-23T16:46:44.735Z,45.66
2023-04-23T16:47:44.717Z,45.76
2023-04-23T16:48:44.802Z,45.76
2023-04-23T16:49:44.750Z,45.86
2023-04-23T16:50:44.714Z,46.34
2023-04-23T16:51:44.713Z,45.76
2023-04-23T16:52:44.710Z,45.95
2023-04-23T16:53:44.715Z,45.86
2023-04-23T16:54:44.957Z,46.05
2023-04-23T16:55:44.739Z,45.95
2023-04-23T16:56:44.702Z,46.12
2023-04-23T16:57:44.712Z,46.12
2023-04-23T16:58:44.697Z,46.61
2023-04-23T16:59:44.737Z,46.51
2023-04-23T17:00:44.710Z,46.51
2023-04-23T17:01:44.719Z,46.12
2023-04-23T17:02:44.808Z,46.51
2023-04-23T17:03:44.891Z,46.03
2023-04-23T17:04:45.018Z,46.42
2023-04-23T17:05:44.694Z,46.42
2023-04-23T17:06:44.675Z,46.51
2023-04-23T17:07:44.700Z,46.32
2023-04-23T17:08:44.699Z,46.42
2023-04-23T17:09:44.679Z,46.58
2023-04-23T17:10:44.689Z,46.32
2023-04-23T17:11:44.662Z,46.49
2023-04-23T17:12:44.669Z,46.58
2023-04-23T17:13:44.686Z,46.49
2023-04-23T17:14:44.716Z,46.30
2023-04-23T17:15:44.703Z,46.30
2023-04-23T17:16:44.752Z,46.30
2023-04-23T17:17:44.707Z,46.20